Time;durP1;ratioP1;P1;durP2;ratioP2;P2;SDS_P1;SDS_P2;PMS_P1;PMS_P2;Temp;Humidity;BMP_temperature;BMP_pressure;BME280_temperature;BME280_humidity;BME280_pressure;Samples;Min_cycle;Max_cycle;Signal;HPM_P1;HPM_P2
2022/10/22 00:01:10;;;;;;;10.47;3.20;;;13.90;99.90;;;;;;5001994;28;20239;-92
2022/10/22 00:03:35;;;;;;;3.70;2.77;;;13.90;99.90;;;;;;5033341;28;20182;-91
2022/10/22 00:06:01;;;;;;;8.20;3.20;;;13.90;99.90;;;;;;5032448;28;20177;-91
2022/10/22 00:08:27;;;;;;;6.13;3.77;;;13.90;99.90;;;;;;5011011;28;20181;-91
2022/10/22 00:10:52;;;;;;;11.23;3.47;;;13.90;99.90;;;;;;5027998;28;20225;-91
2022/10/22 00:13:19;;;;;;;9.30;3.10;;;14.00;99.90;;;;;;5034762;28;20642;-91
2022/10/22 00:15:45;;;;;;;4.20;3.17;;;14.00;99.90;;;;;;5022603;28;20205;-92
2022/10/22 00:18:10;;;;;;;4.50;3.37;;;14.10;99.90;;;;;;5040701;28;20433;-92
2022/10/22 00:20:36;;;;;;;3.30;3.00;;;14.10;99.90;;;;;;5017749;28;20182;-92
2022/10/22 00:23:01;;;;;;;6.50;2.70;;;14.10;99.90;;;;;;5040933;28;20177;-91
2022/10/22 00:25:27;;;;;;;6.03;3.63;;;14.20;99.90;;;;;;5035769;28;20198;-92
2022/10/22 00:27:53;;;;;;;5.23;3.70;;;14.20;99.90;;;;;;5034674;28;20200;-92
2022/10/22 00:30:19;;;;;;;6.67;3.37;;;14.20;99.90;;;;;;5017842;28;20182;-91
2022/10/22 00:32:44;;;;;;;4.70;3.10;;;14.30;99.90;;;;;;5021416;28;20214;-91
2022/10/22 00:35:10;;;;;;;6.70;3.40;;;14.30;99.90;;;;;;5020761;28;20185;-92
2022/10/22 00:37:36;;;;;;;3.57;3.03;;;14.30;99.90;;;;;;5018008;28;20178;-92
2022/10/22 00:40:02;;;;;;;10.07;3.30;;;14.30;99.90;;;;;;5035650;28;20230;-92
2022/10/22 00:42:29;;;;;;;6.30;3.43;;;14.30;99.90;;;;;;5017685;28;20328;-92
2022/10/22 00:45:09;;;;;;;4.33;3.00;;;14.40;99.90;;;;;;5034742;28;20467;-92
2022/10/22 00:48:03;;;;;;;9.60;3.40;;;14.40;99.90;;;;;;5034418;28;20530;-92
2022/10/22 00:50:36;;;;;;;6.17;3.60;;;14.40;99.90;;;;;;5017167;28;20440;-92
2022/10/22 00:53:04;;;;;;;5.53;3.47;;;14.40;99.90;;;;;;5034366;28;20468;-91
2022/10/22 00:55:31;;;;;;;7.53;3.57;;;14.40;99.90;;;;;;5017191;28;20445;-93
2022/10/22 00:57:58;;;;;;;6.50;3.07;;;14.40;99.90;;;;;;5016674;28;20424;-93
2022/10/22 01:00:23;;;;;;;4.73;3.17;;;14.40;99.90;;;;;;5033990;28;20770;-92
2022/10/22 01:02:51;;;;;;;8.27;2.93;;;14.40;99.90;;;;;;5000600;28;20424;-92
2022/10/22 01:05:18;;;;;;;6.07;3.60;;;14.40;99.90;;;;;;5016589;28;20429;-91
2022/10/22 01:07:48;;;;;;;13.87;4.23;;;14.30;99.90;;;;;;5016373;28;20460;-91
2022/10/22 01:10:35;;;;;;;5.80;3.53;;;14.30;99.90;;;;;;5020169;28;20421;-93
2022/10/22 01:13:15;;;;;;;7.03;3.63;;;14.30;99.90;;;;;;5020632;28;20472;-92
2022/10/22 01:16:20;;;;;;;6.30;4.13;;;14.30;99.90;;;;;;5020938;28;20767;-92
2022/10/22 01:19:07;;;;;;;3.67;3.10;;;14.30;99.90;;;;;;5037612;28;20421;-89
2022/10/22 01:21:40;;;;;;;6.53;2.97;;;14.30;99.90;;;;;;5020329;28;20420;-90
2022/10/22 01:24:58;;;;;;;10.07;3.17;;;14.30;99.90;;;;;;5019657;28;20966;-91
2022/10/22 01:27:32;;;;;;;6.93;4.07;;;14.30;99.90;;;;;;4976408;28;20432;-91
2022/10/22 01:30:03;;;;;;;7.80;3.50;;;14.40;99.90;;;;;;5026799;28;20518;-92
2022/10/22 01:32:32;;;;;;;6.03;3.40;;;14.40;99.90;;;;;;5020065;28;20457;-92
2022/10/22 01:35:03;;;;;;;6.17;3.63;;;14.40;99.90;;;;;;5038422;28;20755;-92
2022/10/22 01:37:31;;;;;;;7.67;4.43;;;14.40;99.90;;;;;;5038237;28;20421;-91
2022/10/22 01:40:00;;;;;;;4.87;3.03;;;14.40;99.90;;;;;;5019781;28;20524;-92
2022/10/22 01:42:26;;;;;;;7.57;3.33;;;14.30;99.90;;;;;;5020408;28;20403;-92
2022/10/22 01:44:51;;;;;;;6.73;3.03;;;14.30;99.90;;;;;;4988100;28;20423;-93
2022/10/22 01:47:40;;;;;;;6.97;3.53;;;14.30;99.90;;;;;;5004841;28;20190;-92
2022/10/22 01:50:30;;;;;;;4.53;2.93;;;14.30;99.90;;;;;;5019731;28;20547;-92
2022/10/22 01:52:59;;;;;;;4.80;2.70;;;14.20;99.90;;;;;;5019108;28;20923;-91
2022/10/22 01:55:33;;;;;;;6.70;3.33;;;14.20;99.90;;;;;;5019230;28;20420;-91
2022/10/22 01:58:11;;;;;;;5.97;3.50;;;14.20;99.90;;;;;;5019879;28;20432;-91
2022/10/22 02:00:43;;;;;;;5.80;3.60;;;14.20;99.90;;;;;;5037321;28;20789;-92
2022/10/22 02:03:14;;;;;;;8.53;3.60;;;14.20;99.90;;;;;;5037004;28;20402;-91
2022/10/22 02:05:49;;;;;;;4.87;3.40;;;14.20;99.90;;;;;;5037027;28;20409;-92
2022/10/22 02:08:19;;;;;;;4.80;3.33;;;14.20;99.90;;;;;;5019797;28;20553;-92
2022/10/22 02:10:47;;;;;;;6.53;2.87;;;14.20;99.90;;;;;;5019303;28;20848;-92
2022/10/22 02:13:35;;;;;;;8.10;3.67;;;14.10;99.90;;;;;;5020208;28;20960;-93
2022/10/22 02:16:05;;;;;;;11.00;4.33;;;14.10;99.90;;;;;;5037217;28;20425;-93
2022/10/22 02:18:32;;;;;;;6.20;3.43;;;14.10;99.90;;;;;;5038161;28;20405;-93
2022/10/22 02:20:59;;;;;;;8.20;3.33;;;14.10;99.90;;;;;;5037153;28;20417;-92
2022/10/22 02:23:25;;;;;;;5.47;3.37;;;14.00;99.90;;;;;;5020362;28;20834;-92
2022/10/22 02:26:01;;;;;;;6.53;4.07;;;14.00;99.90;;;;;;5020507;28;20762;-91
2022/10/22 02:28:35;;;;;;;8.00;3.70;;;13.90;99.90;;;;;;5020890;28;20419;-92
2022/10/22 02:31:08;;;;;;;6.17;3.37;;;13.90;99.90;;;;;;5020053;28;20436;-92
2022/10/22 02:33:40;;;;;;;9.47;3.80;;;13.90;99.90;;;;;;5038228;28;20811;-92
2022/10/22 02:36:06;;;;;;;5.17;3.57;;;13.90;99.90;;;;;;5019787;28;20547;-92
2022/10/22 02:38:34;;;;;;;4.57;3.70;;;13.80;99.90;;;;;;5015712;28;20461;-92
2022/10/22 02:41:01;;;;;;;6.90;4.40;;;13.80;99.90;;;;;;5017372;28;20410;-91
2022/10/22 02:43:28;;;;;;;5.37;3.83;;;13.70;99.90;;;;;;5016787;28;20962;-92
2022/10/22 02:45:53;;;;;;;8.00;4.57;;;13.70;99.90;;;;;;5017406;28;20481;-93
2022/10/22 02:48:19;;;;;;;7.07;3.40;;;13.70;99.90;;;;;;5034302;28;20430;-92
2022/10/22 02:50:44;;;;;;;6.20;3.73;;;13.70;99.90;;;;;;5000313;28;20193;-92
2022/10/22 02:53:10;;;;;;;8.13;3.90;;;13.70;99.90;;;;;;5016214;28;20214;-92
2022/10/22 02:55:36;;;;;;;4.83;4.20;;;13.70;99.90;;;;;;5016733;28;20187;-92
2022/10/22 02:58:01;;;;;;;4.13;3.83;;;13.60;99.90;;;;;;5016498;28;20175;-93
2022/10/22 03:00:27;;;;;;;6.07;4.10;;;13.70;99.90;;;;;;5033357;28;20613;-93
2022/10/22 03:02:53;;;;;;;7.20;3.80;;;13.60;99.90;;;;;;5016981;28;20187;-91
2022/10/22 03:05:18;;;;;;;3.90;3.60;;;13.60;99.90;;;;;;5017244;28;20213;-93
2022/10/22 03:07:44;;;;;;;7.40;4.10;;;13.50;99.90;;;;;;5016517;28;20188;-93
2022/10/22 03:10:09;;;;;;;7.13;3.77;;;13.50;99.90;;;;;;5017591;28;20182;-93
2022/10/22 03:12:35;;;;;;;4.50;3.20;;;13.40;99.90;;;;;;5018121;28;20549;-93
2022/10/22 03:15:01;;;;;;;3.90;3.20;;;13.40;99.90;;;;;;5017441;28;20189;-93
2022/10/22 03:17:26;;;;;;;4.73;3.13;;;13.30;99.90;;;;;;5017293;28;20178;-93
2022/10/22 03:19:52;;;;;;;3.90;3.13;;;13.30;99.90;;;;;;5007522;28;20178;-93
2022/10/22 03:22:24;;;;;;;4.47;3.80;;;13.20;99.90;;;;;;4988492;28;20194;-93
2022/10/22 03:24:53;;;;;;;10.63;3.57;;;13.10;99.90;;;;;;5033495;28;20202;-93
2022/10/22 03:27:20;;;;;;;6.73;3.93;;;13.10;99.90;;;;;;5016996;28;20460;-92
2022/10/22 03:29:50;;;;;;;5.70;3.70;;;13.10;99.90;;;;;;5019480;28;20846;-92
2022/10/22 03:32:15;;;;;;;5.63;3.80;;;13.10;99.90;;;;;;5016129;28;20461;-92
2022/10/22 03:34:41;;;;;;;6.93;4.13;;;13.10;99.90;;;;;;5017931;28;20432;-92
2022/10/22 03:37:07;;;;;;;6.80;3.10;;;13.00;99.90;;;;;;5019776;28;20175;-92
2022/10/22 03:39:35;;;;;;;5.40;3.63;;;13.00;99.90;;;;;;5039276;28;20312;-94
2022/10/22 03:42:01;;;;;;;6.53;3.60;;;12.90;99.90;;;;;;5035543;28;20422;-90
2022/10/22 03:44:27;;;;;;;6.30;3.60;;;12.90;99.90;;;;;;5019666;28;20433;-92
2022/10/22 03:46:53;;;;;;;13.50;3.83;;;12.90;99.90;;;;;;5016999;28;20422;-93
2022/10/22 03:49:18;;;;;;;5.60;3.63;;;12.80;99.90;;;;;;5016013;28;20434;-92
2022/10/22 03:51:44;;;;;;;4.57;4.07;;;12.70;99.90;;;;;;5032918;28;20179;-93
2022/10/22 03:54:09;;;;;;;4.77;3.23;;;12.70;99.90;;;;;;5000084;28;20214;-92
2022/10/22 03:56:35;;;;;;;7.60;3.30;;;12.60;99.90;;;;;;5017449;28;20183;-92
2022/10/22 03:59:01;;;;;;;6.10;3.50;;;12.60;99.90;;;;;;5017509;28;20179;-89
2022/10/22 04:01:28;;;;;;;3.63;3.33;;;12.50;99.90;;;;;;5018174;28;20181;-92
2022/10/22 04:03:54;;;;;;;7.23;3.60;;;12.50;99.90;;;;;;5037259;28;20533;-92
2022/10/22 04:06:20;;;;;;;10.63;4.47;;;12.50;99.90;;;;;;5021222;28;20429;-93
2022/10/22 04:08:46;;;;;;;11.93;4.00;;;12.50;99.90;;;;;;5022764;28;20178;-92
2022/10/22 04:11:13;;;;;;;3.53;3.20;;;12.40;99.90;;;;;;5007415;28;20432;-93
2022/10/22 04:13:39;;;;;;;12.50;4.57;;;12.40;99.90;;;;;;5023950;28;20512;-93
2022/10/22 04:16:09;;;;;;;6.37;4.17;;;12.50;99.90;;;;;;5022950;28;20410;-92
2022/10/22 04:18:35;;;;;;;7.80;4.20;;;12.50;99.90;;;;;;5016448;28;20623;-90
2022/10/22 04:21:01;;;;;;;5.30;3.77;;;12.50;99.90;;;;;;5033418;28;20425;-93
2022/10/22 04:23:26;;;;;;;4.40;3.30;;;12.50;99.90;;;;;;5018385;28;20282;-92
2022/10/22 04:26:03;;;;;;;5.77;4.27;;;12.50;99.90;;;;;;5018620;28;20195;-92
2022/10/22 04:28:29;;;;;;;6.27;3.50;;;12.50;99.90;;;;;;5017386;28;20173;-92
2022/10/22 04:30:55;;;;;;;9.37;4.37;;;12.50;99.90;;;;;;5032079;28;20510;-92
2022/10/22 04:33:20;;;;;;;8.10;4.40;;;12.40;99.90;;;;;;4984213;28;20278;-92
2022/10/22 04:35:46;;;;;;;5.03;4.53;;;12.40;99.90;;;;;;5022342;28;20571;-92
2022/10/22 04:38:12;;;;;;;12.90;4.47;;;12.50;99.90;;;;;;5023526;28;20286;-93
2022/10/22 04:40:38;;;;;;;4.40;4.00;;;12.50;99.90;;;;;;5024910;28;20755;-91
2022/10/22 04:43:04;;;;;;;4.80;4.30;;;12.60;99.90;;;;;;5042546;28;20502;-88
2022/10/22 04:45:29;;;;;;;9.93;4.20;;;12.60;99.90;;;;;;5025819;28;20179;-92
2022/10/22 04:47:55;;;;;;;5.37;4.40;;;12.60;99.90;;;;;;5000154;28;20179;-92
2022/10/22 04:50:21;;;;;;;3.90;3.60;;;12.60;99.90;;;;;;4999165;28;20179;-92
2022/10/22 04:52:46;;;;;;;4.90;3.60;;;12.50;99.90;;;;;;5015611;28;20469;-91
2022/10/22 04:55:12;;;;;;;6.97;4.10;;;12.50;99.90;;;;;;5015605;28;20194;-92
2022/10/22 04:57:37;;;;;;;11.30;4.07;;;12.40;99.90;;;;;;5016392;28;20187;-92
2022/10/22 05:00:04;;;;;;;6.00;3.90;;;12.40;99.90;;;;;;5006510;28;20195;-92
2022/10/22 05:02:30;;;;;;;9.33;4.57;;;12.40;99.90;;;;;;5015294;28;20191;-92
2022/10/22 05:04:55;;;;;;;5.50;4.43;;;12.40;99.90;;;;;;5017061;28;20502;-92
2022/10/22 05:07:22;;;;;;;5.30;4.33;;;12.40;99.90;;;;;;5023940;28;20228;-92
2022/10/22 05:09:48;;;;;;;6.80;4.40;;;12.40;99.90;;;;;;5013704;28;20186;-90
2022/10/22 05:12:14;;;;;;;5.57;4.23;;;12.40;99.90;;;;;;5029620;28;20466;-90
2022/10/22 05:14:39;;;;;;;5.73;4.47;;;12.40;99.90;;;;;;4997190;28;20186;-90
2022/10/22 05:17:05;;;;;;;8.57;3.80;;;12.40;99.90;;;;;;5012664;28;20410;-86
2022/10/22 05:19:32;;;;;;;6.17;4.03;;;12.40;99.90;;;;;;5013515;28;20348;-91
2022/10/22 05:22:00;;;;;;;9.60;4.60;;;12.30;99.90;;;;;;5012858;28;20183;-90
2022/10/22 05:24:27;;;;;;;6.00;4.50;;;12.30;99.90;;;;;;5012094;28;21072;-89
2022/10/22 05:26:55;;;;;;;6.90;3.77;;;12.30;99.90;;;;;;5013418;28;20426;-89
2022/10/22 05:29:21;;;;;;;10.07;4.50;;;12.20;99.90;;;;;;5013660;28;20418;-91
2022/10/22 05:31:47;;;;;;;5.93;3.67;;;12.10;99.90;;;;;;5014379;28;20409;-90
2022/10/22 05:34:13;;;;;;;5.90;4.23;;;12.10;99.90;;;;;;4984284;28;20473;-92
2022/10/22 05:36:38;;;;;;;5.93;3.73;;;12.10;99.90;;;;;;5020388;28;20546;-92
2022/10/22 05:39:05;;;;;;;3.97;3.60;;;12.00;99.90;;;;;;5017989;28;20461;-92
2022/10/22 05:41:32;;;;;;;7.50;3.70;;;12.00;99.90;;;;;;5015402;28;20210;-91
2022/10/22 05:43:58;;;;;;;4.97;4.13;;;11.90;99.90;;;;;;5017064;28;20418;-91
2022/10/22 05:46:27;;;;;;;4.60;4.03;;;11.90;99.90;;;;;;5014988;28;20418;-91
2022/10/22 05:48:58;;;;;;;5.70;3.57;;;11.80;99.90;;;;;;5013743;28;20420;-91
2022/10/22 05:51:26;;;;;;;5.37;4.57;;;11.80;99.90;;;;;;5020062;28;20402;-92
2022/10/22 05:54:04;;;;;;;10.53;3.70;;;11.70;99.90;;;;;;5038570;28;20473;-93
2022/10/22 05:56:33;;;;;;;6.30;4.53;;;11.70;99.90;;;;;;5024201;28;20397;-91
2022/10/22 05:58:59;;;;;;;6.10;4.73;;;11.70;99.90;;;;;;5002308;28;20418;-91
2022/10/22 06:01:28;;;;;;;5.97;4.70;;;11.70;99.90;;;;;;4997056;28;20853;-90
2022/10/22 06:03:56;;;;;;;7.90;4.60;;;11.70;99.90;;;;;;4996833;28;20864;-90
2022/10/22 06:06:36;;;;;;;5.90;4.40;;;11.70;99.90;;;;;;4998120;28;20418;-89
2022/10/22 06:09:10;;;;;;;9.00;4.50;;;11.70;99.90;;;;;;4995956;28;20964;-87
2022/10/22 06:11:36;;;;;;;9.30;5.00;;;11.70;99.90;;;;;;4996963;28;20406;-88
2022/10/22 06:14:02;;;;;;;13.13;5.83;;;11.70;99.90;;;;;;4995590;28;20671;-87
2022/10/22 06:16:29;;;;;;;7.77;5.10;;;11.70;99.90;;;;;;4996595;28;20421;-86
2022/10/22 06:18:54;;;;;;;7.50;6.03;;;11.70;99.90;;;;;;4997096;28;20898;-83
2022/10/22 06:21:20;;;;;;;7.90;5.37;;;11.70;99.90;;;;;;4962649;28;20461;-84
2022/10/22 06:23:46;;;;;;;7.97;5.00;;;11.70;99.90;;;;;;5015001;28;20279;-86
2022/10/22 06:26:11;;;;;;;4.60;3.90;;;11.70;99.90;;;;;;5014641;28;20241;-85
2022/10/22 06:28:37;;;;;;;9.90;4.43;;;11.70;99.90;;;;;;5015106;28;20183;-85
2022/10/22 06:31:04;;;;;;;7.37;4.73;;;11.70;99.90;;;;;;4998556;28;20205;-86
2022/10/22 06:33:31;;;;;;;6.03;4.60;;;11.70;99.90;;;;;;4998001;28;20836;-85
2022/10/22 06:36:11;;;;;;;7.20;4.13;;;11.70;99.90;;;;;;5014961;28;20513;-86
2022/10/22 06:38:38;;;;;;;7.83;4.37;;;11.70;99.90;;;;;;5014888;28;20469;-84
2022/10/22 06:41:07;;;;;;;10.97;6.07;;;11.70;99.90;;;;;;5015055;28;20429;-84
2022/10/22 06:43:32;;;;;;;5.33;3.80;;;11.70;99.90;;;;;;5015924;28;20406;-84
2022/10/22 06:46:03;;;;;;;6.97;4.67;;;11.70;99.90;;;;;;5014973;28;20497;-83
2022/10/22 06:48:29;;;;;;;7.03;4.13;;;11.70;99.90;;;;;;5015663;28;20186;-83
2022/10/22 06:50:55;;;;;;;22.60;4.13;;;11.70;99.90;;;;;;5014757;28;20472;-84
2022/10/22 06:53:21;;;;;;;6.83;4.00;;;11.80;99.90;;;;;;5014329;28;20462;-83
2022/10/22 06:55:47;;;;;;;6.80;3.37;;;11.80;99.90;;;;;;5015772;28;20497;-85
2022/10/22 06:58:12;;;;;;;5.90;4.07;;;11.80;99.90;;;;;;4998094;28;20480;-84
2022/10/22 07:00:38;;;;;;;5.67;3.50;;;11.80;99.90;;;;;;5014455;28;20194;-83
2022/10/22 07:03:03;;;;;;;5.57;3.53;;;11.90;99.90;;;;;;4997676;28;20191;-83
2022/10/22 07:05:29;;;;;;;5.97;3.47;;;12.00;99.90;;;;;;4997245;28;20190;-83
2022/10/22 07:07:54;;;;;;;6.17;3.90;;;12.00;99.90;;;;;;5014485;28;20191;-83
2022/10/22 07:10:20;;;;;;;5.60;3.83;;;12.10;99.90;;;;;;4998012;28;20546;-83
2022/10/22 07:12:46;;;;;;;6.33;3.67;;;12.20;99.90;;;;;;5014469;28;20210;-83
2022/10/22 07:15:11;;;;;;;4.77;3.20;;;12.20;99.90;;;;;;4994398;28;20770;-84
2022/10/22 07:17:37;;;;;;;8.03;3.60;;;12.30;99.90;;;;;;5011026;28;20539;-84
2022/10/22 07:20:03;;;;;;;10.60;3.80;;;12.40;99.90;;;;;;5011049;28;20179;-84
2022/10/22 07:22:28;;;;;;;4.60;3.70;;;12.50;99.90;;;;;;5010536;28;20191;-83
2022/10/22 07:24:54;;;;;;;4.87;2.83;;;12.60;99.90;;;;;;5010742;28;20752;-85
2022/10/22 07:27:20;;;;;;;10.13;3.50;;;12.70;99.90;;;;;;5010714;28;20234;-84
2022/10/22 07:29:45;;;;;;;4.07;2.63;;;12.80;99.90;;;;;;5010766;28;20660;-85
2022/10/22 07:32:11;;;;;;;13.47;3.77;;;12.90;99.90;;;;;;4997438;28;20709;-84
2022/10/22 07:34:36;;;;;;;3.77;3.03;;;13.00;99.90;;;;;;4997591;28;20205;-84
2022/10/22 07:37:02;;;;;;;9.83;4.33;;;13.00;99.90;;;;;;4997541;28;20207;-84
2022/10/22 07:39:28;;;;;;;8.20;3.97;;;13.00;99.90;;;;;;5013747;28;20679;-84
2022/10/22 07:41:53;;;;;;;4.53;3.23;;;13.10;99.90;;;;;;4997668;28;20191;-84
2022/10/22 07:44:19;;;;;;;8.93;3.80;;;13.10;99.90;;;;;;4997396;28;20179;-85
2022/10/22 07:46:44;;;;;;;7.47;3.23;;;13.10;99.90;;;;;;5013964;28;20557;-84
2022/10/22 07:49:10;;;;;;;4.60;3.20;;;13.20;99.90;;;;;;5013512;28;20256;-84
2022/10/22 07:51:35;;;;;;;6.83;3.40;;;13.20;99.90;;;;;;5013043;28;20184;-85
2022/10/22 07:54:01;;;;;;;5.93;3.53;;;13.20;99.90;;;;;;4996637;28;20223;-84
2022/10/22 07:56:27;;;;;;;8.63;3.53;;;13.40;99.90;;;;;;5013286;28;20222;-84
2022/10/22 07:58:52;;;;;;;8.90;2.63;;;13.50;99.90;;;;;;4997391;28;20236;-84
2022/10/22 08:01:18;;;;;;;5.93;3.20;;;13.60;99.90;;;;;;4996552;28;20666;-84
2022/10/22 08:03:43;;;;;;;4.27;2.50;;;13.70;99.90;;;;;;4997157;28;20250;-84
2022/10/22 08:06:12;;;;;;;7.27;2.70;;;13.80;99.90;;;;;;5013168;28;20186;-83
2022/10/22 08:08:38;;;;;;;6.20;2.80;;;14.00;99.90;;;;;;5014317;28;20370;-84
2022/10/22 08:11:03;;;;;;;8.30;3.40;;;14.00;99.90;;;;;;5014689;28;20516;-83
2022/10/22 08:13:29;;;;;;;5.53;2.20;;;14.10;99.90;;;;;;5014130;28;20211;-83
2022/10/22 08:15:57;;;;;;;5.63;2.60;;;14.20;99.90;;;;;;5014342;28;20174;-83
2022/10/22 08:18:22;;;;;;;5.27;2.50;;;14.20;99.90;;;;;;5013972;28;20437;-83
2022/10/22 08:20:48;;;;;;;6.50;2.20;;;14.20;99.90;;;;;;4996487;28;20413;-83
2022/10/22 08:23:13;;;;;;;5.10;1.90;;;14.30;99.90;;;;;;5014253;28;20233;-83
2022/10/22 08:25:39;;;;;;;8.33;3.00;;;14.40;99.90;;;;;;5013792;28;20174;-83
2022/10/22 08:28:04;;;;;;;3.27;2.00;;;14.50;99.90;;;;;;5014212;28;20183;-82
2022/10/22 08:30:32;;;;;;;8.83;3.13;;;14.60;99.90;;;;;;5012911;28;20179;-82
2022/10/22 08:32:58;;;;;;;5.63;2.20;;;14.70;99.90;;;;;;4996631;28;20625;-82
2022/10/22 08:35:24;;;;;;;5.60;2.23;;;14.90;99.90;;;;;;4996394;28;20414;-83
2022/10/22 08:37:49;;;;;;;6.83;2.50;;;15.00;99.90;;;;;;5015752;28;20179;-83
2022/10/22 08:40:38;;;;;;;8.30;1.93;;;15.10;99.90;;;;;;5016259;28;20269;-83
2022/10/22 08:43:26;;;;;;;7.37;2.40;;;15.20;99.90;;;;;;5033796;28;20179;-83
2022/10/22 08:46:17;;;;;;;7.73;2.47;;;15.20;99.90;;;;;;5032937;28;20420;-83
2022/10/22 08:48:52;;;;;;;14.03;2.83;;;15.40;99.90;;;;;;5033529;28;20384;-83
2022/10/22 08:51:25;;;;;;;5.40;2.13;;;15.50;99.90;;;;;;5021891;28;20753;-85
2022/10/22 08:54:08;;;;;;;6.47;2.03;;;15.60;99.90;;;;;;5033544;28;20460;-83
2022/10/22 08:56:35;;;;;;;5.47;1.63;;;15.70;99.90;;;;;;5032199;28;20778;-83
2022/10/22 08:59:21;;;;;;;5.07;1.80;;;15.80;99.90;;;;;;4999330;28;20867;-84
2022/10/22 09:01:50;;;;;;;5.43;1.87;;;15.90;99.90;;;;;;5015637;28;20480;-83
2022/10/22 09:04:25;;;;;;;6.90;2.13;;;16.00;99.90;;;;;;5015960;28;20468;-83
2022/10/22 09:06:53;;;;;;;9.23;1.77;;;16.00;99.90;;;;;;5031902;28;20518;-84
2022/10/22 09:09:19;;;;;;;6.70;1.50;;;16.10;99.90;;;;;;5033407;28;20401;-83
2022/10/22 09:11:56;;;;;;;9.03;1.53;;;16.20;99.90;;;;;;5032130;28;21304;-83
2022/10/22 09:14:24;;;;;;;4.43;1.50;;;16.20;99.90;;;;;;5015213;28;20483;-83
2022/10/22 09:17:08;;;;;;;7.67;1.60;;;16.20;99.90;;;;;;5031857;28;20404;-83
2022/10/22 09:19:41;;;;;;;6.80;2.00;;;16.20;99.90;;;;;;5031867;28;20416;-83
2022/10/22 09:22:34;;;;;;;5.23;1.43;;;16.20;99.90;;;;;;5033039;28;20488;-83
2022/10/22 09:25:20;;;;;;;6.20;1.50;;;16.20;99.90;;;;;;5033456;28;20424;-83
2022/10/22 09:27:47;;;;;;;6.70;1.83;;;16.30;99.90;;;;;;5015839;28;20437;-83
2022/10/22 09:30:21;;;;;;;4.43;1.77;;;16.30;99.90;;;;;;5034595;28;20416;-83
2022/10/22 09:32:58;;;;;;;8.80;1.73;;;16.30;99.90;;;;;;5019500;28;20580;-84
2022/10/22 09:35:23;;;;;;;7.30;1.40;;;16.40;99.90;;;;;;5036774;28;20869;-83
2022/10/22 09:37:54;;;;;;;4.50;1.97;;;16.30;99.90;;;;;;5019313;28;20405;-83
2022/10/22 09:40:21;;;;;;;4.50;1.50;;;16.40;99.90;;;;;;5037044;28;20456;-84
2022/10/22 09:42:46;;;;;;;4.83;1.70;;;16.40;99.90;;;;;;5019074;28;20769;-84
2022/10/22 09:45:31;;;;;;;4.43;1.37;;;16.50;99.90;;;;;;5037082;28;20401;-83
2022/10/22 09:48:31;;;;;;;6.97;1.50;;;16.50;99.90;;;;;;5019060;28;20748;-83
2022/10/22 09:51:02;;;;;;;4.57;1.50;;;16.50;99.90;;;;;;5023049;28;20421;-83
2022/10/22 09:53:30;;;;;;;3.30;1.20;;;16.50;99.90;;;;;;5036387;28;20460;-84
2022/10/22 09:55:59;;;;;;;4.87;2.00;;;16.40;99.90;;;;;;5036584;28;20408;-83
2022/10/22 09:58:26;;;;;;;6.33;1.70;;;16.40;99.90;;;;;;5018657;28;20421;-84
2022/10/22 10:00:57;;;;;;;7.17;1.30;;;16.40;99.90;;;;;;5002574;28;20435;-84
2022/10/22 10:03:27;;;;;;;11.27;2.93;;;16.40;99.90;;;;;;5036348;28;20480;-85
2022/10/22 10:05:56;;;;;;;8.70;1.80;;;16.50;99.90;;;;;;5036482;28;20388;-83
2022/10/22 10:08:22;;;;;;;5.77;1.40;;;16.50;99.90;;;;;;5035229;28;20502;-84
2022/10/22 10:10:55;;;;;;;6.47;1.27;;;16.40;99.90;;;;;;5036498;28;20523;-84
2022/10/22 10:13:50;;;;;;;5.53;1.40;;;16.50;99.90;;;;;;5018616;28;20481;-84
2022/10/22 10:16:24;;;;;;;3.97;1.13;;;16.50;99.90;;;;;;5036146;28;20428;-83
2022/10/22 10:19:20;;;;;;;4.67;1.63;;;16.40;99.90;;;;;;5034638;28;20423;-83
2022/10/22 10:21:59;;;;;;;3.60;1.73;;;16.40;99.90;;;;;;5018157;28;20989;-83
2022/10/22 10:25:08;;;;;;;4.30;1.10;;;16.40;99.90;;;;;;5018168;28;20793;-84
2022/10/22 10:27:41;;;;;;;3.37;1.43;;;16.40;99.90;;;;;;4974715;28;20417;-83
2022/10/22 10:30:17;;;;;;;8.77;1.50;;;16.40;99.90;;;;;;5034510;28;20455;-83
2022/10/22 10:33:04;;;;;;;7.90;1.37;;;16.40;99.90;;;;;;5017777;28;20991;-83
2022/10/22 10:35:42;;;;;;;4.57;1.77;;;16.40;99.90;;;;;;5033793;28;20429;-84
2022/10/22 10:38:45;;;;;;;5.63;1.47;;;16.40;99.90;;;;;;5014480;28;20473;-83
2022/10/22 10:41:38;;;;;;;4.63;1.50;;;16.50;99.90;;;;;;5015520;28;20417;-84
2022/10/22 10:44:28;;;;;;;3.13;1.00;;;16.50;99.90;;;;;;5016133;28;20410;-84
2022/10/22 10:47:14;;;;;;;1.30;0.83;;;16.50;99.90;;;;;;5016043;28;20481;-83
2022/10/22 10:49:42;;;;;;;3.37;1.30;;;16.50;99.90;;;;;;5008141;28;20422;-84
2022/10/22 10:52:28;;;;;;;4.93;1.50;;;16.50;99.90;;;;;;5030913;28;20946;-84
2022/10/22 10:55:06;;;;;;;2.60;0.90;;;16.60;99.90;;;;;;5014482;28;20418;-84
2022/10/22 10:58:04;;;;;;;3.13;1.60;;;16.60;99.90;;;;;;5015318;28;20832;-83
2022/10/22 11:00:51;;;;;;;4.20;1.53;;;16.60;99.90;;;;;;5013978;28;20421;-84
2022/10/22 11:03:31;;;;;;;4.80;1.30;;;16.60;99.90;;;;;;5015793;28;20464;-84
2022/10/22 11:06:06;;;;;;;3.97;1.10;;;16.70;99.90;;;;;;5015735;28;20395;-84
2022/10/22 11:08:44;;;;;;;3.00;0.90;;;16.70;99.90;;;;;;5014025;28;20422;-84
2022/10/22 11:11:38;;;;;;;4.83;1.57;;;16.70;99.90;;;;;;5031181;28;20503;-83
2022/10/22 11:14:17;;;;;;;3.23;1.10;;;16.70;99.90;;;;;;5014873;28;20476;-84
2022/10/22 11:16:54;;;;;;;2.60;1.00;;;16.60;99.90;;;;;;5013668;28;20939;-84
2022/10/22 11:20:06;;;;;;;6.50;1.20;;;16.60;99.90;;;;;;5014005;28;20420;-85
2022/10/22 11:22:43;;;;;;;5.03;1.20;;;16.70;99.90;;;;;;5014279;28;20828;-85
2022/10/22 11:25:12;;;;;;;4.80;1.10;;;16.60;99.90;;;;;;5015293;28;20406;-84
2022/10/22 11:28:00;;;;;;;2.50;0.80;;;16.60;99.90;;;;;;5013943;28;20441;-84
2022/10/22 11:30:30;;;;;;;3.83;1.10;;;16.60;99.90;;;;;;5015031;28;20476;-84
2022/10/22 11:33:00;;;;;;;3.47;1.70;;;16.60;99.90;;;;;;5014149;28;20891;-86
2022/10/22 11:35:30;;;;;;;5.13;1.03;;;16.70;99.90;;;;;;5030536;28;20449;-86
2022/10/22 11:37:56;;;;;;;3.87;1.50;;;16.60;99.90;;;;;;5016932;28;20436;-84
2022/10/22 11:40:28;;;;;;;3.47;1.13;;;16.60;99.90;;;;;;5027449;28;20432;-85
2022/10/22 11:43:27;;;;;;;2.60;0.70;;;16.70;99.90;;;;;;5036531;28;20749;-84
2022/10/22 11:46:01;;;;;;;3.50;1.00;;;16.60;99.90;;;;;;5034791;28;20546;-85
2022/10/22 11:48:34;;;;;;;1.87;0.90;;;16.70;99.90;;;;;;5016835;28;20431;-85
2022/10/22 11:51:01;;;;;;;2.03;0.93;;;16.70;99.90;;;;;;5034408;28;20409;-85
2022/10/22 11:53:33;;;;;;;2.20;0.90;;;16.60;99.90;;;;;;5016141;28;20468;-86
2022/10/22 11:56:21;;;;;;;2.47;0.70;;;16.70;99.90;;;;;;5016818;28;20433;-86
2022/10/22 11:58:47;;;;;;;4.53;1.00;;;16.80;99.90;;;;;;5034306;28;20492;-85
2022/10/22 12:01:12;;;;;;;3.90;1.73;;;16.80;99.90;;;;;;5016403;28;20997;-86
2022/10/22 12:04:11;;;;;;;2.60;0.80;;;16.90;99.90;;;;;;5034124;28;20209;-85
2022/10/22 12:07:26;;;;;;;2.13;0.77;;;17.00;99.90;;;;;;4972981;28;20221;-85
2022/10/22 12:09:52;;;;;;;4.33;1.17;;;17.20;99.90;;;;;;5028497;28;20436;-85
2022/10/22 12:12:19;;;;;;;4.00;0.90;;;17.30;99.90;;;;;;5016314;28;20401;-86
2022/10/22 12:14:58;;;;;;;6.23;1.37;;;17.50;99.90;;;;;;4999787;28;20206;-85
2022/10/22 12:17:25;;;;;;;2.90;1.00;;;17.50;99.90;;;;;;5000065;28;20407;-85
2022/10/22 12:20:01;;;;;;;3.07;1.20;;;17.70;99.90;;;;;;5032511;28;20629;-85
2022/10/22 12:22:32;;;;;;;2.67;0.90;;;17.80;99.90;;;;;;5033807;28;20411;-85
2022/10/22 12:25:14;;;;;;;1.37;0.90;;;18.10;99.90;;;;;;5033788;28;20404;-85
2022/10/22 12:27:40;;;;;;;4.07;1.10;;;18.20;99.90;;;;;;5016092;28;20423;-86
2022/10/22 12:30:23;;;;;;;2.97;1.23;;;18.50;99.90;;;;;;5033573;28;20462;-86
2022/10/22 12:32:55;;;;;;;3.30;0.90;;;18.60;99.90;;;;;;5033217;28;20500;-85
2022/10/22 12:35:26;;;;;;;1.67;1.30;;;18.80;99.90;;;;;;5033807;28;20571;-86
2022/10/22 12:37:55;;;;;;;2.80;1.13;;;18.70;99.90;;;;;;5015278;28;20421;-85
2022/10/22 12:40:29;;;;;;;2.77;0.90;;;18.90;99.90;;;;;;5015918;28;20527;-85
2022/10/22 12:43:00;;;;;;;3.40;0.93;;;19.10;99.90;;;;;;5033444;28;20748;-85
2022/10/22 12:45:28;;;;;;;3.10;1.00;;;19.40;99.90;;;;;;5015911;28;20974;-86
2022/10/22 12:48:00;;;;;;;5.03;1.60;;;19.70;99.90;;;;;;5033206;28;20402;-86
2022/10/22 12:50:37;;;;;;;5.60;1.07;;;19.80;99.90;;;;;;5033553;28;20395;-85
2022/10/22 12:53:24;;;;;;;4.00;1.30;;;19.70;99.90;;;;;;5032229;28;20472;-85
2022/10/22 12:55:51;;;;;;;3.70;0.90;;;19.80;99.90;;;;;;5001436;28;20406;-86
2022/10/22 12:58:20;;;;;;;2.70;1.20;;;19.70;99.90;;;;;;5015599;28;20894;-85
2022/10/22 13:00:47;;;;;;;4.30;1.10;;;19.50;99.90;;;;;;5015363;28;20500;-86
2022/10/22 13:03:40;;;;;;;3.13;1.00;;;19.30;99.90;;;;;;5015882;28;20421;-85
2022/10/22 13:06:18;;;;;;;3.17;1.03;;;19.20;99.90;;;;;;5016611;28;20447;-86